Time,TemperatureF,DewpointF,PressureIn,WindDirection,WindDirectionDegrees,WindSpeedMPH,WindSpeedGustMPH,Humidity,HourlyPrecipIn,Conditions,Clouds,dailyrainin,SolarRadiationWatts/m^2,SoftwareType,DateUTC
2013-03-24 00:02:00,3.0,0.0,-100.00,NNW,332,0.0,4.0,86,0.00,,,0.00,0.000000,,2013-03-24 06:02:00,
2013-03-24 00:12:00,3.0,0.0,-100.00,NNW,332,0.0,4.0,86,0.00,,,0.00,0.000000,,2013-03-24 06:12:00,
2013-03-24 00:22:00,3.0,0.0,-100.00,NNW,332,0.0,4.0,86,0.00,,,0.00,0.000000,,2013-03-24 06:22:00,
2013-03-24 00:32:00,3.0,0.0,-100.00,NNW,332,0.0,4.0,86,0.00,,,0.00,0.000000,,2013-03-24 06:32:00,
2013-03-24 00:40:00,1.0,-2.0,-100.00,WSW,244,2.0,4.0,86,0.00,,,0.00,0.000000,,2013-03-24 06:40:00,
2013-03-24 01:02:00,1.0,-2.0,-100.00,WSW,244,2.0,4.0,86,0.00,,,0.00,0.000000,,2013-03-24 07:02:00,
2013-03-24 01:12:00,1.0,-2.0,-100.00,WSW,244,2.0,4.0,86,0.00,,,0.00,0.000000,,2013-03-24 07:12:00,
2013-03-24 01:22:00,1.0,-2.0,-100.00,WSW,244,2.0,4.0,86,0.00,,,0.00,0.000000,,2013-03-24 07:22:00,
2013-03-24 01:32:00,1.0,-2.0,-100.00,WSW,244,2.0,4.0,86,0.00,,,0.00,0.000000,,2013-03-24 07:32:00,
2013-03-24 01:40:00,4.0,1.0,-100.00,SW,217,6.0,10.0,87,0.00,,,0.00,0.000000,,2013-03-24 07:40:00,
2013-03-24 02:02:00,4.0,1.0,-100.00,SW,217,6.0,10.0,87,0.00,,,0.00,0.000000,,2013-03-24 08:02:00,
2013-03-24 02:12:00,4.0,1.0,-100.00,SW,217,6.0,10.0,87,0.00,,,0.00,0.000000,,2013-03-24 08:12:00,
2013-03-24 02:22:00,4.0,1.0,-100.00,SW,217,6.0,10.0,87,0.00,,,0.00,0.000000,,2013-03-24 08:22:00,
2013-03-24 02:32:00,4.0,1.0,-100.00,SW,217,6.0,10.0,87,0.00,,,0.00,0.000000,,2013-03-24 08:32:00,
2013-03-24 02:40:00,3.0,0.0,-100.00,SW,231,5.0,10.0,86,0.00,,,0.00,0.000000,,2013-03-24 08:40:00,
2013-03-24 03:02:00,3.0,0.0,-100.00,SW,231,5.0,10.0,86,0.00,,,0.00,0.000000,,2013-03-24 09:02:00,
2013-03-24 03:12:00,3.0,0.0,-100.00,SW,231,5.0,10.0,86,0.00,,,0.00,0.000000,,2013-03-24 09:12:00,
2013-03-24 03:22:00,3.0,0.0,-100.00,SW,231,5.0,10.0,86,0.00,,,0.00,0.000000,,2013-03-24 09:22:00,
2013-03-24 03:33:00,3.0,0.0,-100.00,SW,231,5.0,10.0,86,0.00,,,0.00,0.000000,,2013-03-24 09:33:00,
2013-03-24 03:40:00,1.0,-3.0,-100.00,WNW,297,3.0,9.0,82,0.00,,,0.00,0.000000,,2013-03-24 09:40:00,
2013-03-24 04:02:00,1.0,-3.0,-100.00,WNW,297,3.0,9.0,82,0.00,,,0.00,0.000000,,2013-03-24 10:02:00,
2013-03-24 04:12:00,1.0,-3.0,-100.00,WNW,297,3.0,9.0,82,0.00,,,0.00,0.000000,,2013-03-24 10:12:00,
2013-03-24 04:22:00,1.0,-3.0,-100.00,WNW,297,3.0,9.0,82,0.00,,,0.00,0.000000,,2013-03-24 10:22:00,
2013-03-24 04:32:00,1.0,-3.0,-100.00,WNW,297,3.0,9.0,82,0.00,,,0.00,0.000000,,2013-03-24 10:32:00,
2013-03-24 04:40:00,-2.0,-6.0,-100.00,WSW,247,1.0,6.0,82,0.00,,,0.00,0.000000,,2013-03-24 10:40:00,
2013-03-24 05:03:00,-2.0,-6.0,-100.00,WSW,247,1.0,6.0,82,0.00,,,0.00,0.000000,,2013-03-24 11:03:00,
2013-03-24 05:12:00,-2.0,-6.0,-100.00,WSW,247,1.0,6.0,82,0.00,,,0.00,0.000000,,2013-03-24 11:12:00,
2013-03-24 05:22:00,-2.0,-6.0,-100.00,WSW,247,1.0,6.0,82,0.00,,,0.00,0.000000,,2013-03-24 11:22:00,
2013-03-24 05:32:00,-2.0,-6.0,-100.00,WSW,247,1.0,6.0,82,0.00,,,0.00,0.000000,,2013-03-24 11:32:00,
2013-03-24 05:40:00,2.0,-3.0,-100.00,WNW,291,6.0,12.0,79,0.00,,,0.00,0.000000,,2013-03-24 11:40:00,
2013-03-24 06:02:00,2.0,-3.0,-100.00,WNW,291,6.0,12.0,79,0.00,,,0.00,0.000000,,2013-03-24 12:02:00,
2013-03-24 06:12:00,2.0,-3.0,-100.00,WNW,291,6.0,12.0,79,0.00,,,0.00,0.000000,,2013-03-24 12:12:00,
2013-03-24 06:22:00,2.0,-3.0,-100.00,WNW,291,6.0,12.0,79,0.00,,,0.00,0.000000,,2013-03-24 12:22:00,
2013-03-24 06:32:00,2.0,-3.0,-100.00,WNW,291,6.0,12.0,79,0.00,,,0.00,0.000000,,2013-03-24 12:32:00,
2013-03-24 06:40:00,2.0,-3.0,-100.00,WNW,288,8.0,13.0,78,0.00,,,0.00,0.000000,,2013-03-24 12:40:00,
2013-03-24 07:02:00,2.0,-3.0,-100.00,WNW,288,8.0,13.0,78,0.00,,,0.00,0.000000,,2013-03-24 13:02:00,
2013-03-24 07:12:00,2.0,-3.0,-100.00,WNW,288,8.0,13.0,78,0.00,,,0.00,0.000000,,2013-03-24 13:12:00,
2013-03-24 07:22:00,2.0,-3.0,-100.00,WNW,288,8.0,13.0,78,0.00,,,0.00,0.000000,,2013-03-24 13:22:00,
2013-03-24 07:32:00,2.0,-3.0,-100.00,WNW,288,8.0,13.0,78,0.00,,,0.00,0.000000,,2013-03-24 13:32:00,
2013-03-24 07:40:00,2.0,-3.0,-100.00,WNW,291,6.0,13.0,78,0.00,,,0.00,0.000000,,2013-03-24 13:40:00,
2013-03-24 08:02:00,2.0,-3.0,-100.00,WNW,291,6.0,13.0,78,0.00,,,0.00,0.000000,,2013-03-24 14:02:00,
2013-03-24 08:12:00,2.0,-3.0,-100.00,WNW,291,6.0,13.0,78,0.00,,,0.00,0.000000,,2013-03-24 14:12:00,
2013-03-24 08:22:00,2.0,-3.0,-100.00,WNW,291,6.0,13.0,78,0.00,,,0.00,0.000000,,2013-03-24 14:22:00,
2013-03-24 08:32:00,2.0,-3.0,-100.00,WNW,291,6.0,13.0,78,0.00,,,0.00,0.000000,,2013-03-24 14:32:00,
2013-03-24 08:40:00,10.0,0.0,-100.00,WNW,301,8.0,19.0,64,0.00,,,0.00,20.000000,,2013-03-24 14:40:00,
2013-03-24 09:02:00,10.0,0.0,-100.00,WNW,301,8.0,19.0,64,0.00,,,0.00,20.000000,,2013-03-24 15:02:00,
2013-03-24 09:22:00,10.0,0.0,-100.00,WNW,301,8.0,19.0,64,0.00,,,0.00,20.000000,,2013-03-24 15:22:00,
2013-03-24 09:33:00,10.0,0.0,-100.00,WNW,301,8.0,19.0,64,0.00,,,0.00,20.000000,,2013-03-24 15:33:00,
2013-03-24 09:40:00,20.0,5.0,-100.00,NNW,328,4.0,15.0,51,0.00,,,0.00,52.000000,,2013-03-24 15:40:00,
2013-03-24 10:02:00,20.0,5.0,-100.00,NNW,328,4.0,15.0,51,0.00,,,0.00,52.000000,,2013-03-24 16:02:00,
2013-03-24 11:02:00,25.0,7.0,-100.00,NNE,13,2.0,11.0,45,-99.99,,,0.00,77.000000,,2013-03-24 17:02:00,
2013-03-24 11:40:00,22.0,5.0,-100.00,NNE,22,2.0,7.0,48,-99.99,,,0.00,86.000000,,2013-03-24 17:40:00,
2013-03-24 12:02:00,22.0,5.0,-100.00,NNE,22,2.0,7.0,48,-99.99,,,0.00,86.000000,,2013-03-24 18:02:00,
2013-03-24 12:12:00,22.0,5.0,-100.00,NNE,22,2.0,7.0,48,-99.99,,,0.00,86.000000,,2013-03-24 18:12:00,
2013-03-24 12:22:00,22.0,5.0,-100.00,NNE,22,2.0,7.0,48,-99.99,,,0.00,86.000000,,2013-03-24 18:22:00,
2013-03-24 12:32:00,22.0,5.0,-100.00,NNE,22,2.0,7.0,48,-99.99,,,0.00,86.000000,,2013-03-24 18:32:00,
2013-03-24 12:40:00,18.0,6.0,-100.00,NE,42,2.0,9.0,59,0.02,,,0.02,67.000000,,2013-03-24 18:40:00,
2013-03-24 13:02:00,18.0,6.0,-100.00,NE,42,2.0,9.0,59,0.02,,,0.02,67.000000,,2013-03-24 19:02:00,
2013-03-24 13:12:00,18.0,6.0,-100.00,NE,42,2.0,9.0,59,0.02,,,0.02,67.000000,,2013-03-24 19:12:00,
2013-03-24 13:22:00,18.0,6.0,-100.00,NE,42,2.0,9.0,59,0.02,,,0.02,67.000000,,2013-03-24 19:22:00,
2013-03-24 13:32:00,18.0,6.0,-100.00,NE,42,2.0,9.0,59,0.02,,,0.02,67.000000,,2013-03-24 19:32:00,
2013-03-24 13:40:00,20.0,9.0,-100.00,North,351,2.0,7.0,61,0.00,,,0.02,47.000000,,2013-03-24 19:40:00,
2013-03-24 14:02:00,20.0,9.0,-100.00,North,351,2.0,7.0,61,0.00,,,0.02,47.000000,,2013-03-24 20:02:00,
2013-03-24 14:12:00,20.0,9.0,-100.00,North,351,2.0,7.0,61,0.00,,,0.02,47.000000,,2013-03-24 20:12:00,
2013-03-24 14:22:00,20.0,9.0,-100.00,North,351,2.0,7.0,61,0.00,,,0.02,47.000000,,2013-03-24 20:22:00,
2013-03-24 14:32:00,20.0,9.0,-100.00,North,351,2.0,7.0,61,0.00,,,0.02,47.000000,,2013-03-24 20:32:00,
2013-03-24 14:40:00,19.0,9.0,-100.00,NNE,15,3.0,8.0,64,0.00,,,0.02,47.000000,,2013-03-24 20:40:00,
2013-03-24 15:02:00,19.0,9.0,-100.00,NNE,15,3.0,8.0,64,0.00,,,0.02,47.000000,,2013-03-24 21:02:00,
2013-03-24 15:12:00,19.0,9.0,-100.00,NNE,15,3.0,8.0,64,0.00,,,0.02,47.000000,,2013-03-24 21:12:00,
2013-03-24 15:22:00,19.0,9.0,-100.00,NNE,15,3.0,8.0,64,0.00,,,0.02,47.000000,,2013-03-24 21:22:00,
2013-03-24 15:32:00,19.0,9.0,-100.00,NNE,15,3.0,8.0,64,0.00,,,0.02,47.000000,,2013-03-24 21:32:00,
2013-03-24 15:40:00,24.0,10.0,-100.00,North,353,3.0,8.0,55,0.01,,,0.03,60.000000,,2013-03-24 21:40:00,
2013-03-24 16:02:00,24.0,10.0,-100.00,North,353,3.0,8.0,55,0.01,,,0.03,60.000000,,2013-03-24 22:02:00,
2013-03-24 16:12:00,24.0,10.0,-100.00,North,353,3.0,8.0,55,0.01,,,0.03,60.000000,,2013-03-24 22:12:00,
2013-03-24 16:22:00,24.0,10.0,-100.00,North,353,3.0,8.0,55,0.01,,,0.03,60.000000,,2013-03-24 22:22:00,
2013-03-24 16:32:00,24.0,10.0,-100.00,North,353,3.0,8.0,55,0.01,,,0.03,60.000000,,2013-03-24 22:32:00,
2013-03-24 16:40:00,18.0,9.0,-100.00,NNE,23,2.0,8.0,67,0.00,,,0.03,46.000000,,2013-03-24 22:40:00,
2013-03-24 17:02:00,18.0,9.0,-100.00,NNE,23,2.0,8.0,67,0.00,,,0.03,46.000000,,2013-03-24 23:02:00,
2013-03-24 17:12:00,18.0,9.0,-100.00,NNE,23,2.0,8.0,67,0.00,,,0.03,46.000000,,2013-03-24 23:12:00,
2013-03-24 17:22:00,18.0,9.0,-100.00,NNE,23,2.0,8.0,67,0.00,,,0.03,46.000000,,2013-03-24 23:22:00,
2013-03-24 17:32:00,18.0,9.0,-100.00,NNE,23,2.0,8.0,67,0.00,,,0.03,46.000000,,2013-03-24 23:32:00,
2013-03-24 17:40:00,22.0,8.0,-100.00,NNW,343,1.0,4.0,54,0.00,,,0.03,47.000000,,2013-03-24 23:40:00,
2013-03-24 18:02:00,22.0,8.0,-100.00,NNW,343,1.0,4.0,54,0.00,,,0.03,47.000000,,2013-03-25 00:02:00,
2013-03-24 18:12:00,22.0,8.0,-100.00,NNW,343,1.0,4.0,54,0.00,,,0.03,47.000000,,2013-03-25 00:12:00,
2013-03-24 18:22:00,22.0,8.0,-100.00,NNW,343,1.0,4.0,54,0.00,,,0.03,47.000000,,2013-03-25 00:22:00,
2013-03-24 18:32:00,22.0,8.0,-100.00,NNW,343,1.0,4.0,54,0.00,,,0.03,47.000000,,2013-03-25 00:32:00,
2013-03-24 18:40:00,15.0,6.0,-100.00,NNW,341,1.0,4.0,66,0.00,,,0.03,30.000000,,2013-03-25 00:40:00,
2013-03-24 19:02:00,15.0,6.0,-100.00,NNW,341,1.0,4.0,66,0.00,,,0.03,30.000000,,2013-03-25 01:02:00,
2013-03-24 19:12:00,15.0,6.0,-100.00,NNW,341,1.0,4.0,66,0.00,,,0.03,30.000000,,2013-03-25 01:12:00,
2013-03-24 19:22:00,15.0,6.0,-100.00,NNW,341,1.0,4.0,66,0.00,,,0.03,30.000000,,2013-03-25 01:22:00,
2013-03-24 19:32:00,15.0,6.0,-100.00,NNW,341,1.0,4.0,66,0.00,,,0.03,30.000000,,2013-03-25 01:32:00,
2013-03-24 19:40:00,8.0,2.0,-100.00,North,359,1.0,5.0,76,0.00,,,0.03,4.000000,,2013-03-25 01:40:00,
2013-03-24 20:02:00,8.0,2.0,-100.00,North,359,1.0,5.0,76,0.00,,,0.03,4.000000,,2013-03-25 02:02:00,
2013-03-24 20:12:00,8.0,2.0,-100.00,North,359,1.0,5.0,76,0.00,,,0.03,4.000000,,2013-03-25 02:12:00,
2013-03-24 20:22:00,8.0,2.0,-100.00,North,359,1.0,5.0,76,0.00,,,0.03,4.000000,,2013-03-25 02:22:00,
2013-03-24 20:32:00,8.0,2.0,-100.00,North,359,1.0,5.0,76,0.00,,,0.03,4.000000,,2013-03-25 02:32:00,
2013-03-24 20:40:00,5.0,2.0,-100.00,NNE,13,0.0,4.0,85,0.00,,,0.03,0.000000,,2013-03-25 02:40:00,
2013-03-24 21:02:00,5.0,2.0,-100.00,NNE,13,0.0,4.0,85,0.00,,,0.03,0.000000,,2013-03-25 03:02:00,
2013-03-24 21:12:00,5.0,2.0,-100.00,NNE,13,0.0,4.0,85,0.00,,,0.03,0.000000,,2013-03-25 03:12:00,
2013-03-24 21:22:00,5.0,2.0,-100.00,NNE,13,0.0,4.0,85,0.00,,,0.03,0.000000,,2013-03-25 03:22:00,
2013-03-24 21:33:00,5.0,2.0,-100.00,NNE,13,0.0,4.0,85,0.00,,,0.03,0.000000,,2013-03-25 03:33:00,
2013-03-24 21:40:00,4.0,0.0,-100.00,SSW,210,3.0,4.0,84,0.00,,,0.03,0.000000,,2013-03-25 03:40:00,
2013-03-24 22:02:00,4.0,0.0,-100.00,SSW,210,3.0,4.0,84,0.00,,,0.03,0.000000,,2013-03-25 04:02:00,
2013-03-24 22:12:00,4.0,0.0,-100.00,SSW,210,3.0,4.0,84,0.00,,,0.03,0.000000,,2013-03-25 04:12:00,
2013-03-24 22:22:00,4.0,0.0,-100.00,SSW,210,3.0,4.0,84,0.00,,,0.03,0.000000,,2013-03-25 04:22:00,
2013-03-24 22:32:00,4.0,0.0,-100.00,SSW,210,3.0,4.0,84,0.00,,,0.03,0.000000,,2013-03-25 04:32:00,
2013-03-24 22:40:00,7.0,3.0,-100.00,SW,218,8.0,11.0,82,0.00,,,0.03,0.000000,,2013-03-25 04:40:00,
2013-03-24 23:03:00,7.0,3.0,-100.00,SW,218,8.0,11.0,82,0.00,,,0.03,0.000000,,2013-03-25 05:03:00,
2013-03-24 23:12:00,7.0,3.0,-100.00,SW,218,8.0,11.0,82,0.00,,,0.03,0.000000,,2013-03-25 05:12:00,
2013-03-24 23:22:00,7.0,3.0,-100.00,SW,218,8.0,11.0,82,0.00,,,0.03,0.000000,,2013-03-25 05:22:00,
2013-03-24 23:32:00,7.0,3.0,-100.00,SW,218,8.0,11.0,82,0.00,,,0.03,0.000000,,2013-03-25 05:32:00,
2013-03-24 23:40:00,9.0,4.0,-100.00,WSW,241,9.0,15.0,78,0.00,,,0.03,0.000000,,2013-03-25 05:40:00,